sensor_id;sensor_type;location;lat;lon;timestamp;P1;durP1;ratioP1;P2;durP2;ratioP2
53899;SDS011;40509;32.858;-116.858;2023-05-29T00:01:26;3.65;;;1.58;;
53899;SDS011;40509;32.858;-116.858;2023-05-29T00:03:54;2.38;;;1.65;;
53899;SDS011;40509;32.858;-116.858;2023-05-29T00:06:21;2.97;;;2.20;;
53899;SDS011;40509;32.858;-116.858;2023-05-29T00:08:48;2.63;;;2.30;;
53899;SDS011;40509;32.858;-116.858;2023-05-29T00:11:15;1.70;;;1.52;;
53899;SDS011;40509;32.858;-116.858;2023-05-29T00:13:42;1.83;;;1.30;;
53899;SDS011;40509;32.858;-116.858;2023-05-29T00:16:09;5.20;;;2.30;;
53899;SDS011;40509;32.858;-116.858;2023-05-29T00:18:37;1.83;;;1.73;;
53899;SDS011;40509;32.858;-116.858;2023-05-29T00:21:11;2.47;;;2.28;;
53899;SDS011;40509;32.858;-116.858;2023-05-29T00:23:40;3.95;;;2.33;;
53899;SDS011;40509;32.858;-116.858;2023-05-29T00:26:07;2.17;;;1.83;;
53899;SDS011;40509;32.858;-116.858;2023-05-29T00:28:37;2.70;;;2.22;;
53899;SDS011;40509;32.858;-116.858;2023-05-29T00:31:04;1.58;;;1.38;;
53899;SDS011;40509;32.858;-116.858;2023-05-29T00:33:32;2.13;;;1.85;;
53899;SDS011;40509;32.858;-116.858;2023-05-29T00:36:00;1.98;;;1.63;;
53899;SDS011;40509;32.858;-116.858;2023-05-29T00:38:27;2.22;;;2.03;;
53899;SDS011;40509;32.858;-116.858;2023-05-29T00:40:54;3.60;;;2.05;;
53899;SDS011;40509;32.858;-116.858;2023-05-29T00:43:22;3.03;;;2.08;;
53899;SDS011;40509;32.858;-116.858;2023-05-29T00:45:49;2.17;;;2.00;;
53899;SDS011;40509;32.858;-116.858;2023-05-29T00:48:17;1.50;;;1.40;;
53899;SDS011;40509;32.858;-116.858;2023-05-29T00:50:44;3.00;;;1.95;;
53899;SDS011;40509;32.858;-116.858;2023-05-29T00:53:16;3.15;;;1.75;;
53899;SDS011;40509;32.858;-116.858;2023-05-29T00:55:43;3.65;;;1.98;;
53899;SDS011;40509;32.858;-116.858;2023-05-29T00:58:11;3.75;;;2.50;;
53899;SDS011;40509;32.858;-116.858;2023-05-29T01:00:39;2.17;;;1.98;;
53899;SDS011;40509;32.858;-116.858;2023-05-29T01:03:07;2.70;;;2.33;;
53899;SDS011;40509;32.858;-116.858;2023-05-29T01:05:35;1.70;;;1.55;;
53899;SDS011;40509;32.858;-116.858;2023-05-29T01:08:03;2.92;;;2.30;;
53899;SDS011;40509;32.858;-116.858;2023-05-29T01:10:31;2.17;;;1.90;;
53899;SDS011;40509;32.858;-116.858;2023-05-29T01:15:49;2.15;;;1.70;;
53899;SDS011;40509;32.858;-116.858;2023-05-29T01:18:31;2.28;;;2.08;;
53899;SDS011;40509;32.858;-116.858;2023-05-29T01:27:35;1.85;;;1.63;;
53899;SDS011;40509;32.858;-116.858;2023-05-29T01:30:06;2.78;;;1.83;;
53899;SDS011;40509;32.858;-116.858;2023-05-29T01:32:35;3.65;;;2.35;;
53899;SDS011;40509;32.858;-116.858;2023-05-29T01:35:04;6.90;;;2.03;;
53899;SDS011;40509;32.858;-116.858;2023-05-29T01:37:32;7.25;;;3.13;;
53899;SDS011;40509;32.858;-116.858;2023-05-29T01:39:59;5.63;;;2.88;;
53899;SDS011;40509;32.858;-116.858;2023-05-29T01:42:27;4.55;;;2.13;;
53899;SDS011;40509;32.858;-116.858;2023-05-29T01:44:56;7.20;;;2.30;;
53899;SDS011;40509;32.858;-116.858;2023-05-29T01:47:26;3.83;;;2.80;;
53899;SDS011;40509;32.858;-116.858;2023-05-29T01:49:53;2.75;;;2.53;;
53899;SDS011;40509;32.858;-116.858;2023-05-29T01:52:22;4.88;;;2.08;;
53899;SDS011;40509;32.858;-116.858;2023-05-29T01:54:49;2.92;;;2.67;;
53899;SDS011;40509;32.858;-116.858;2023-05-29T01:57:16;3.85;;;2.47;;
53899;SDS011;40509;32.858;-116.858;2023-05-29T01:59:44;4.05;;;1.95;;
53899;SDS011;40509;32.858;-116.858;2023-05-29T02:02:12;4.03;;;3.05;;
53899;SDS011;40509;32.858;-116.858;2023-05-29T02:04:39;3.88;;;2.45;;
53899;SDS011;40509;32.858;-116.858;2023-05-29T02:07:06;3.38;;;2.30;;
53899;SDS011;40509;32.858;-116.858;2023-05-29T02:09:34;18.50;;;3.30;;
53899;SDS011;40509;32.858;-116.858;2023-05-29T02:12:02;4.40;;;3.00;;
53899;SDS011;40509;32.858;-116.858;2023-05-29T02:14:29;4.25;;;2.40;;
53899;SDS011;40509;32.858;-116.858;2023-05-29T02:16:58;4.82;;;2.85;;
53899;SDS011;40509;32.858;-116.858;2023-05-29T02:19:27;6.80;;;2.55;;
53899;SDS011;40509;32.858;-116.858;2023-05-29T02:21:54;6.72;;;2.78;;
53899;SDS011;40509;32.858;-116.858;2023-05-29T02:24:22;10.38;;;3.13;;
53899;SDS011;40509;32.858;-116.858;2023-05-29T02:26:49;2.72;;;2.53;;
53899;SDS011;40509;32.858;-116.858;2023-05-29T02:29:16;3.13;;;2.50;;
53899;SDS011;40509;32.858;-116.858;2023-05-29T02:31:44;4.60;;;2.63;;
53899;SDS011;40509;32.858;-116.858;2023-05-29T02:34:11;2.95;;;2.38;;
53899;SDS011;40509;32.858;-116.858;2023-05-29T02:36:38;3.83;;;2.13;;
53899;SDS011;40509;32.858;-116.858;2023-05-29T02:39:06;4.03;;;2.17;;
53899;SDS011;40509;32.858;-116.858;2023-05-29T02:41:33;9.75;;;2.50;;
53899;SDS011;40509;32.858;-116.858;2023-05-29T02:44:00;7.28;;;2.90;;
53899;SDS011;40509;32.858;-116.858;2023-05-29T02:46:27;5.10;;;2.58;;
53899;SDS011;40509;32.858;-116.858;2023-05-29T02:48:54;7.65;;;2.78;;
53899;SDS011;40509;32.858;-116.858;2023-05-29T02:51:22;6.97;;;2.38;;
53899;SDS011;40509;32.858;-116.858;2023-05-29T02:53:49;3.42;;;2.72;;
53899;SDS011;40509;32.858;-116.858;2023-05-29T02:56:16;9.93;;;3.00;;
53899;SDS011;40509;32.858;-116.858;2023-05-29T02:58:43;4.30;;;2.60;;
53899;SDS011;40509;32.858;-116.858;2023-05-29T03:01:11;4.53;;;3.05;;
53899;SDS011;40509;32.858;-116.858;2023-05-29T03:03:38;10.77;;;3.83;;
53899;SDS011;40509;32.858;-116.858;2023-05-29T03:06:06;2.88;;;2.13;;
53899;SDS011;40509;32.858;-116.858;2023-05-29T03:08:35;3.00;;;2.70;;
53899;SDS011;40509;32.858;-116.858;2023-05-29T03:11:11;6.57;;;2.80;;
53899;SDS011;40509;32.858;-116.858;2023-05-29T03:13:39;2.78;;;2.58;;
53899;SDS011;40509;32.858;-116.858;2023-05-29T03:16:08;14.50;;;3.13;;
53899;SDS011;40509;32.858;-116.858;2023-05-29T03:18:38;3.63;;;2.72;;
53899;SDS011;40509;32.858;-116.858;2023-05-29T03:21:06;5.93;;;2.92;;
53899;SDS011;40509;32.858;-116.858;2023-05-29T03:23:34;12.50;;;3.35;;
53899;SDS011;40509;32.858;-116.858;2023-05-29T03:26:02;6.80;;;2.83;;
53899;SDS011;40509;32.858;-116.858;2023-05-29T03:28:32;4.07;;;2.80;;
53899;SDS011;40509;32.858;-116.858;2023-05-29T03:31:02;11.00;;;3.10;;
53899;SDS011;40509;32.858;-116.858;2023-05-29T03:33:30;8.20;;;3.38;;
53899;SDS011;40509;32.858;-116.858;2023-05-29T03:36:23;7.53;;;3.50;;
53899;SDS011;40509;32.858;-116.858;2023-05-29T03:38:50;8.88;;;3.90;;
53899;SDS011;40509;32.858;-116.858;2023-05-29T03:41:19;5.47;;;3.25;;
53899;SDS011;40509;32.858;-116.858;2023-05-29T03:43:46;4.00;;;3.53;;
53899;SDS011;40509;32.858;-116.858;2023-05-29T03:46:14;6.38;;;3.83;;
53899;SDS011;40509;32.858;-116.858;2023-05-29T03:48:43;6.18;;;4.07;;
53899;SDS011;40509;32.858;-116.858;2023-05-29T03:51:10;9.38;;;5.18;;
53899;SDS011;40509;32.858;-116.858;2023-05-29T03:53:39;6.10;;;3.75;;
53899;SDS011;40509;32.858;-116.858;2023-05-29T03:56:08;17.25;;;4.20;;
53899;SDS011;40509;32.858;-116.858;2023-05-29T03:58:35;10.40;;;3.72;;
53899;SDS011;40509;32.858;-116.858;2023-05-29T04:01:02;11.45;;;4.13;;
53899;SDS011;40509;32.858;-116.858;2023-05-29T04:03:31;5.90;;;3.40;;
53899;SDS011;40509;32.858;-116.858;2023-05-29T04:05:58;13.50;;;3.22;;
53899;SDS011;40509;32.858;-116.858;2023-05-29T04:08:26;7.47;;;4.68;;
53899;SDS011;40509;32.858;-116.858;2023-05-29T04:10:53;5.30;;;3.33;;
53899;SDS011;40509;32.858;-116.858;2023-05-29T04:13:21;10.02;;;4.30;;
53899;SDS011;40509;32.858;-116.858;2023-05-29T04:15:49;4.13;;;3.78;;
53899;SDS011;40509;32.858;-116.858;2023-05-29T04:18:20;9.20;;;4.22;;
53899;SDS011;40509;32.858;-116.858;2023-05-29T04:20:48;17.67;;;4.03;;
53899;SDS011;40509;32.858;-116.858;2023-05-29T04:23:16;5.15;;;4.03;;
53899;SDS011;40509;32.858;-116.858;2023-05-29T04:25:43;6.25;;;3.40;;
53899;SDS011;40509;32.858;-116.858;2023-05-29T04:28:11;6.72;;;4.15;;
53899;SDS011;40509;32.858;-116.858;2023-05-29T04:30:39;6.72;;;4.07;;
53899;SDS011;40509;32.858;-116.858;2023-05-29T04:33:08;6.53;;;3.80;;
53899;SDS011;40509;32.858;-116.858;2023-05-29T04:35:42;5.28;;;3.80;;
53899;SDS011;40509;32.858;-116.858;2023-05-29T04:38:10;3.70;;;3.40;;
53899;SDS011;40509;32.858;-116.858;2023-05-29T04:40:38;4.65;;;3.10;;
53899;SDS011;40509;32.858;-116.858;2023-05-29T04:43:07;6.00;;;3.65;;
53899;SDS011;40509;32.858;-116.858;2023-05-29T04:45:54;7.03;;;3.50;;
53899;SDS011;40509;32.858;-116.858;2023-05-29T04:48:22;3.65;;;3.03;;
53899;SDS011;40509;32.858;-116.858;2023-05-29T04:50:49;6.90;;;4.28;;
53899;SDS011;40509;32.858;-116.858;2023-05-29T04:53:16;5.13;;;2.95;;
53899;SDS011;40509;32.858;-116.858;2023-05-29T04:55:44;4.60;;;2.50;;
53899;SDS011;40509;32.858;-116.858;2023-05-29T04:58:11;3.92;;;3.25;;
53899;SDS011;40509;32.858;-116.858;2023-05-29T05:00:40;4.07;;;3.30;;
53899;SDS011;40509;32.858;-116.858;2023-05-29T05:03:07;6.38;;;2.75;;
53899;SDS011;40509;32.858;-116.858;2023-05-29T05:05:36;12.93;;;2.67;;
53899;SDS011;40509;32.858;-116.858;2023-05-29T05:08:03;6.45;;;3.15;;
53899;SDS011;40509;32.858;-116.858;2023-05-29T05:10:30;4.05;;;2.83;;
53899;SDS011;40509;32.858;-116.858;2023-05-29T05:12:57;8.40;;;3.88;;
53899;SDS011;40509;32.858;-116.858;2023-05-29T05:15:26;5.43;;;3.08;;
53899;SDS011;40509;32.858;-116.858;2023-05-29T05:17:53;7.03;;;3.22;;
53899;SDS011;40509;32.858;-116.858;2023-05-29T05:20:20;9.07;;;2.58;;
53899;SDS011;40509;32.858;-116.858;2023-05-29T05:22:54;6.13;;;3.42;;
53899;SDS011;40509;32.858;-116.858;2023-05-29T05:25:22;3.33;;;3.03;;
53899;SDS011;40509;32.858;-116.858;2023-05-29T05:27:50;3.42;;;3.00;;
53899;SDS011;40509;32.858;-116.858;2023-05-29T05:30:18;6.97;;;3.00;;
53899;SDS011;40509;32.858;-116.858;2023-05-29T05:32:46;8.65;;;3.20;;
53899;SDS011;40509;32.858;-116.858;2023-05-29T05:35:13;3.03;;;2.72;;
53899;SDS011;40509;32.858;-116.858;2023-05-29T05:37:41;5.30;;;3.03;;
53899;SDS011;40509;32.858;-116.858;2023-05-29T05:40:08;4.50;;;2.95;;
53899;SDS011;40509;32.858;-116.858;2023-05-29T05:42:47;4.15;;;2.72;;
53899;SDS011;40509;32.858;-116.858;2023-05-29T05:45:14;5.90;;;3.25;;
53899;SDS011;40509;32.858;-116.858;2023-05-29T05:47:42;2.80;;;2.60;;
53899;SDS011;40509;32.858;-116.858;2023-05-29T05:50:10;9.88;;;3.20;;
53899;SDS011;40509;32.858;-116.858;2023-05-29T05:52:40;3.40;;;2.70;;
53899;SDS011;40509;32.858;-116.858;2023-05-29T05:55:07;7.00;;;3.38;;
53899;SDS011;40509;32.858;-116.858;2023-05-29T05:57:35;7.45;;;3.03;;
53899;SDS011;40509;32.858;-116.858;2023-05-29T06:00:05;2.92;;;2.30;;
53899;SDS011;40509;32.858;-116.858;2023-05-29T06:02:45;4.18;;;2.97;;
53899;SDS011;40509;32.858;-116.858;2023-05-29T06:05:29;3.72;;;2.88;;
53899;SDS011;40509;32.858;-116.858;2023-05-29T06:07:56;2.63;;;2.42;;
53899;SDS011;40509;32.858;-116.858;2023-05-29T06:10:24;5.38;;;2.60;;
53899;SDS011;40509;32.858;-116.858;2023-05-29T06:12:51;5.53;;;3.17;;
53899;SDS011;40509;32.858;-116.858;2023-05-29T06:15:24;5.10;;;2.72;;
53899;SDS011;40509;32.858;-116.858;2023-05-29T06:17:51;2.90;;;2.08;;
53899;SDS011;40509;32.858;-116.858;2023-05-29T06:20:21;3.08;;;2.42;;
53899;SDS011;40509;32.858;-116.858;2023-05-29T06:22:49;6.05;;;2.95;;
53899;SDS011;40509;32.858;-116.858;2023-05-29T06:25:18;2.53;;;2.33;;
53899;SDS011;40509;32.858;-116.858;2023-05-29T06:27:46;6.40;;;2.83;;
53899;SDS011;40509;32.858;-116.858;2023-05-29T06:30:14;4.32;;;2.42;;
53899;SDS011;40509;32.858;-116.858;2023-05-29T06:32:41;4.60;;;3.38;;
53899;SDS011;40509;32.858;-116.858;2023-05-29T06:35:09;3.45;;;2.92;;
53899;SDS011;40509;32.858;-116.858;2023-05-29T06:37:36;2.35;;;2.13;;
53899;SDS011;40509;32.858;-116.858;2023-05-29T06:40:05;3.17;;;2.63;;
53899;SDS011;40509;32.858;-116.858;2023-05-29T06:42:33;3.33;;;2.45;;
53899;SDS011;40509;32.858;-116.858;2023-05-29T06:45:06;8.23;;;2.75;;
53899;SDS011;40509;32.858;-116.858;2023-05-29T06:47:34;3.05;;;2.60;;
53899;SDS011;40509;32.858;-116.858;2023-05-29T06:50:01;5.22;;;2.50;;
53899;SDS011;40509;32.858;-116.858;2023-05-29T06:52:29;3.95;;;3.25;;
53899;SDS011;40509;32.858;-116.858;2023-05-29T06:55:22;3.00;;;2.53;;
53899;SDS011;40509;32.858;-116.858;2023-05-29T06:57:50;5.20;;;2.47;;
53899;SDS011;40509;32.858;-116.858;2023-05-29T07:00:17;3.72;;;2.85;;
53899;SDS011;40509;32.858;-116.858;2023-05-29T07:03:05;3.13;;;2.50;;
53899;SDS011;40509;32.858;-116.858;2023-05-29T07:05:33;4.43;;;2.88;;
53899;SDS011;40509;32.858;-116.858;2023-05-29T07:08:00;6.15;;;2.60;;
53899;SDS011;40509;32.858;-116.858;2023-05-29T07:10:28;4.93;;;3.08;;
53899;SDS011;40509;32.858;-116.858;2023-05-29T07:12:56;3.42;;;2.83;;
53899;SDS011;40509;32.858;-116.858;2023-05-29T07:15:23;3.65;;;2.90;;
53899;SDS011;40509;32.858;-116.858;2023-05-29T07:17:50;4.20;;;2.38;;
53899;SDS011;40509;32.858;-116.858;2023-05-29T07:20:23;3.78;;;2.58;;
53899;SDS011;40509;32.858;-116.858;2023-05-29T07:22:52;3.28;;;2.40;;
53899;SDS011;40509;32.858;-116.858;2023-05-29T07:25:19;2.78;;;2.47;;
53899;SDS011;40509;32.858;-116.858;2023-05-29T07:27:47;4.13;;;1.67;;
53899;SDS011;40509;32.858;-116.858;2023-05-29T07:30:14;4.15;;;2.60;;
53899;SDS011;40509;32.858;-116.858;2023-05-29T07:32:42;3.63;;;2.85;;
53899;SDS011;40509;32.858;-116.858;2023-05-29T07:35:10;3.30;;;2.53;;
53899;SDS011;40509;32.858;-116.858;2023-05-29T07:37:38;2.50;;;2.15;;
53899;SDS011;40509;32.858;-116.858;2023-05-29T07:40:05;2.75;;;2.13;;
53899;SDS011;40509;32.858;-116.858;2023-05-29T07:42:51;3.25;;;2.38;;
53899;SDS011;40509;32.858;-116.858;2023-05-29T07:45:20;2.42;;;2.20;;
53899;SDS011;40509;32.858;-116.858;2023-05-29T07:47:47;3.17;;;2.30;;
53899;SDS011;40509;32.858;-116.858;2023-05-29T07:50:18;3.25;;;2.70;;
53899;SDS011;40509;32.858;-116.858;2023-05-29T07:52:46;2.95;;;2.00;;
53899;SDS011;40509;32.858;-116.858;2023-05-29T07:55:14;2.25;;;2.10;;
53899;SDS011;40509;32.858;-116.858;2023-05-29T07:57:44;2.55;;;1.70;;
53899;SDS011;40509;32.858;-116.858;2023-05-29T08:00:11;7.05;;;2.90;;
53899;SDS011;40509;32.858;-116.858;2023-05-29T08:02:45;2.08;;;1.83;;
53899;SDS011;40509;32.858;-116.858;2023-05-29T08:05:39;4.20;;;2.47;;
53899;SDS011;40509;32.858;-116.858;2023-05-29T08:08:11;2.60;;;2.40;;
53899;SDS011;40509;32.858;-116.858;2023-05-29T08:10:39;3.20;;;2.20;;
53899;SDS011;40509;32.858;-116.858;2023-05-29T08:13:06;5.47;;;3.15;;
53899;SDS011;40509;32.858;-116.858;2023-05-29T08:15:35;2.60;;;2.35;;
53899;SDS011;40509;32.858;-116.858;2023-05-29T08:18:03;3.38;;;2.00;;
53899;SDS011;40509;32.858;-116.858;2023-05-29T08:20:31;2.58;;;2.35;;
53899;SDS011;40509;32.858;-116.858;2023-05-29T08:23:00;2.92;;;2.60;;
53899;SDS011;40509;32.858;-116.858;2023-05-29T08:25:28;3.28;;;2.30;;
53899;SDS011;40509;32.858;-116.858;2023-05-29T08:27:55;3.15;;;2.40;;
53899;SDS011;40509;32.858;-116.858;2023-05-29T08:30:22;2.65;;;2.45;;
53899;SDS011;40509;32.858;-116.858;2023-05-29T08:32:49;2.10;;;1.77;;
53899;SDS011;40509;32.858;-116.858;2023-05-29T08:35:17;3.90;;;2.15;;
53899;SDS011;40509;32.858;-116.858;2023-05-29T08:37:44;2.63;;;2.42;;
53899;SDS011;40509;32.858;-116.858;2023-05-29T08:40:11;4.53;;;3.50;;
53899;SDS011;40509;32.858;-116.858;2023-05-29T08:42:41;2.42;;;2.22;;
53899;SDS011;40509;32.858;-116.858;2023-05-29T08:45:13;2.38;;;1.98;;
53899;SDS011;40509;32.858;-116.858;2023-05-29T08:47:42;3.22;;;2.20;;
53899;SDS011;40509;32.858;-116.858;2023-05-29T08:50:10;2.88;;;2.22;;
53899;SDS011;40509;32.858;-116.858;2023-05-29T08:52:39;2.35;;;2.05;;
53899;SDS011;40509;32.858;-116.858;2023-05-29T08:55:07;3.22;;;1.90;;
53899;SDS011;40509;32.858;-116.858;2023-05-29T08:57:35;2.47;;;2.15;;
53899;SDS011;40509;32.858;-116.858;2023-05-29T09:00:06;2.30;;;1.90;;
53899;SDS011;40509;32.858;-116.858;2023-05-29T09:02:39;2.95;;;2.30;;
53899;SDS011;40509;32.858;-116.858;2023-05-29T09:05:07;2.38;;;2.00;;
53899;SDS011;40509;32.858;-116.858;2023-05-29T09:07:36;2.63;;;2.20;;
53899;SDS011;40509;32.858;-116.858;2023-05-29T09:10:05;2.28;;;2.08;;
53899;SDS011;40509;32.858;-116.858;2023-05-29T09:12:34;2.08;;;1.73;;
53899;SDS011;40509;32.858;-116.858;2023-05-29T09:15:02;3.47;;;2.25;;
53899;SDS011;40509;32.858;-116.858;2023-05-29T09:17:30;2.50;;;2.20;;
53899;SDS011;40509;32.858;-116.858;2023-05-29T09:19:59;4.15;;;2.53;;
53899;SDS011;40509;32.858;-116.858;2023-05-29T09:22:26;2.55;;;2.35;;
53899;SDS011;40509;32.858;-116.858;2023-05-29T09:24:53;2.63;;;2.42;;
53899;SDS011;40509;32.858;-116.858;2023-05-29T09:27:20;3.42;;;2.42;;
53899;SDS011;40509;32.858;-116.858;2023-05-29T09:29:48;2.75;;;2.08;;
53899;SDS011;40509;32.858;-116.858;2023-05-29T09:32:16;2.25;;;2.05;;
53899;SDS011;40509;32.858;-116.858;2023-05-29T09:34:44;1.58;;;1.48;;
53899;SDS011;40509;32.858;-116.858;2023-05-29T09:37:12;2.58;;;1.83;;
53899;SDS011;40509;32.858;-116.858;2023-05-29T09:39:49;2.15;;;1.70;;
53899;SDS011;40509;32.858;-116.858;2023-05-29T09:42:17;2.53;;;2.33;;
53899;SDS011;40509;32.858;-116.858;2023-05-29T09:44:48;2.83;;;2.25;;
53899;SDS011;40509;32.858;-116.858;2023-05-29T09:47:19;2.85;;;2.35;;
53899;SDS011;40509;32.858;-116.858;2023-05-29T09:49:48;3.28;;;2.50;;
53899;SDS011;40509;32.858;-116.858;2023-05-29T09:52:15;6.00;;;1.80;;
53899;SDS011;40509;32.858;-116.858;2023-05-29T09:54:48;3.90;;;2.42;;
53899;SDS011;40509;32.858;-116.858;2023-05-29T09:57:17;4.70;;;2.33;;
53899;SDS011;40509;32.858;-116.858;2023-05-29T09:59:44;2.00;;;1.90;;
53899;SDS011;40509;32.858;-116.858;2023-05-29T10:02:15;2.75;;;2.00;;
53899;SDS011;40509;32.858;-116.858;2023-05-29T10:04:42;2.25;;;1.73;;
53899;SDS011;40509;32.858;-116.858;2023-05-29T10:07:12;1.92;;;1.67;;
53899;SDS011;40509;32.858;-116.858;2023-05-29T10:09:52;2.53;;;2.05;;
53899;SDS011;40509;32.858;-116.858;2023-05-29T10:12:25;2.15;;;1.95;;
53899;SDS011;40509;32.858;-116.858;2023-05-29T10:14:53;2.70;;;2.03;;
53899;SDS011;40509;32.858;-116.858;2023-05-29T10:17:28;2.10;;;1.88;;
53899;SDS011;40509;32.858;-116.858;2023-05-29T10:20:01;2.40;;;1.90;;
53899;SDS011;40509;32.858;-116.858;2023-05-29T10:22:32;1.98;;;1.73;;
53899;SDS011;40509;32.858;-116.858;2023-05-29T10:25:02;1.75;;;1.65;;
53899;SDS011;40509;32.858;-116.858;2023-05-29T10:27:30;2.40;;;1.80;;
53899;SDS011;40509;32.858;-116.858;2023-05-29T10:30:06;2.20;;;1.70;;
53899;SDS011;40509;32.858;-116.858;2023-05-29T10:38:27;2.55;;;2.03;;
53899;SDS011;40509;32.858;-116.858;2023-05-29T10:40:54;2.33;;;2.10;;
53899;SDS011;40509;32.858;-116.858;2023-05-29T10:43:32;2.40;;;1.70;;
53899;SDS011;40509;32.858;-116.858;2023-05-29T10:46:01;2.03;;;1.92;;
53899;SDS011;40509;32.858;-116.858;2023-05-29T10:48:38;3.83;;;1.92;;
53899;SDS011;40509;32.858;-116.858;2023-05-29T10:51:07;2.20;;;1.95;;
53899;SDS011;40509;32.858;-116.858;2023-05-29T10:53:34;2.63;;;1.90;;
53899;SDS011;40509;32.858;-116.858;2023-05-29T10:56:14;1.55;;;1.25;;
53899;SDS011;40509;32.858;-116.858;2023-05-29T10:58:49;1.67;;;1.52;;
53899;SDS011;40509;32.858;-116.858;2023-05-29T11:01:23;2.70;;;2.03;;
53899;SDS011;40509;32.858;-116.858;2023-05-29T11:04:25;2.25;;;1.67;;
53899;SDS011;40509;32.858;-116.858;2023-05-29T11:06:44;1.92;;;1.70;;
53899;SDS011;40509;32.858;-116.858;2023-05-29T11:09:27;2.75;;;2.00;;
53899;SDS011;40509;32.858;-116.858;2023-05-29T11:14:56;1.98;;;1.50;;
53899;SDS011;40509;32.858;-116.858;2023-05-29T11:17:29;2.08;;;1.83;;
53899;SDS011;40509;32.858;-116.858;2023-05-29T11:20:00;2.08;;;1.88;;
53899;SDS011;40509;32.858;-116.858;2023-05-29T11:22:46;2.70;;;1.90;;
53899;SDS011;40509;32.858;-116.858;2023-05-29T11:25:26;2.42;;;2.17;;
53899;SDS011;40509;32.858;-116.858;2023-05-29T11:27:54;2.17;;;1.83;;
53899;SDS011;40509;32.858;-116.858;2023-05-29T11:30:21;1.95;;;1.30;;
53899;SDS011;40509;32.858;-116.858;2023-05-29T11:32:49;2.20;;;1.77;;
53899;SDS011;40509;32.858;-116.858;2023-05-29T11:35:19;1.95;;;1.65;;
53899;SDS011;40509;32.858;-116.858;2023-05-29T11:37:49;2.22;;;1.95;;
53899;SDS011;40509;32.858;-116.858;2023-05-29T11:40:16;2.30;;;2.10;;
53899;SDS011;40509;32.858;-116.858;2023-05-29T11:42:45;1.85;;;1.70;;
53899;SDS011;40509;32.858;-116.858;2023-05-29T11:45:19;2.03;;;1.75;;
53899;SDS011;40509;32.858;-116.858;2023-05-29T11:47:54;2.97;;;2.00;;
53899;SDS011;40509;32.858;-116.858;2023-05-29T11:50:27;1.63;;;1.45;;
53899;SDS011;40509;32.858;-116.858;2023-05-29T11:52:57;2.13;;;1.70;;
53899;SDS011;40509;32.858;-116.858;2023-05-29T11:55:26;2.22;;;2.03;;
53899;SDS011;40509;32.858;-116.858;2023-05-29T11:57:58;2.00;;;1.80;;
53899;SDS011;40509;32.858;-116.858;2023-05-29T12:00:35;1.67;;;1.45;;
53899;SDS011;40509;32.858;-116.858;2023-05-29T12:03:05;1.83;;;1.27;;
53899;SDS011;40509;32.858;-116.858;2023-05-29T12:05:43;2.08;;;1.70;;
53899;SDS011;40509;32.858;-116.858;2023-05-29T12:08:22;1.58;;;1.48;;
53899;SDS011;40509;32.858;-116.858;2023-05-29T12:10:51;1.55;;;1.42;;
53899;SDS011;40509;32.858;-116.858;2023-05-29T12:13:19;2.28;;;1.75;;
53899;SDS011;40509;32.858;-116.858;2023-05-29T12:15:47;1.88;;;1.40;;
53899;SDS011;40509;32.858;-116.858;2023-05-29T12:18:17;2.58;;;1.60;;
53899;SDS011;40509;32.858;-116.858;2023-05-29T12:20:45;2.55;;;1.95;;
53899;SDS011;40509;32.858;-116.858;2023-05-29T12:23:12;2.22;;;1.58;;
53899;SDS011;40509;32.858;-116.858;2023-05-29T12:25:39;2.08;;;1.65;;
53899;SDS011;40509;32.858;-116.858;2023-05-29T12:28:09;2.67;;;1.90;;
53899;SDS011;40509;32.858;-116.858;2023-05-29T12:30:47;2.15;;;1.90;;
53899;SDS011;40509;32.858;-116.858;2023-05-29T12:33:25;2.00;;;1.80;;
53899;SDS011;40509;32.858;-116.858;2023-05-29T12:36:06;1.83;;;1.48;;
53899;SDS011;40509;32.858;-116.858;2023-05-29T12:38:47;2.63;;;1.58;;
53899;SDS011;40509;32.858;-116.858;2023-05-29T12:41:36;3.30;;;2.20;;
53899;SDS011;40509;32.858;-116.858;2023-05-29T12:44:04;1.58;;;1.33;;
53899;SDS011;40509;32.858;-116.858;2023-05-29T12:46:38;1.73;;;1.63;;
53899;SDS011;40509;32.858;-116.858;2023-05-29T12:49:13;1.35;;;1.25;;
53899;SDS011;40509;32.858;-116.858;2023-05-29T12:51:44;1.92;;;1.50;;
53899;SDS011;40509;32.858;-116.858;2023-05-29T12:54:13;4.70;;;2.25;;
53899;SDS011;40509;32.858;-116.858;2023-05-29T12:56:41;1.92;;;1.75;;
53899;SDS011;40509;32.858;-116.858;2023-05-29T12:59:09;2.83;;;2.15;;
53899;SDS011;40509;32.858;-116.858;2023-05-29T13:01:37;2.28;;;1.77;;
53899;SDS011;40509;32.858;-116.858;2023-05-29T13:04:05;2.38;;;1.70;;
53899;SDS011;40509;32.858;-116.858;2023-05-29T13:06:39;1.63;;;1.52;;
53899;SDS011;40509;32.858;-116.858;2023-05-29T13:09:06;1.65;;;1.45;;
53899;SDS011;40509;32.858;-116.858;2023-05-29T13:11:34;1.95;;;1.60;;
53899;SDS011;40509;32.858;-116.858;2023-05-29T13:14:03;1.40;;;1.30;;
53899;SDS011;40509;32.858;-116.858;2023-05-29T13:16:30;1.65;;;1.55;;
53899;SDS011;40509;32.858;-116.858;2023-05-29T13:18:57;1.67;;;1.55;;
53899;SDS011;40509;32.858;-116.858;2023-05-29T13:21:24;1.70;;;1.60;;
53899;SDS011;40509;32.858;-116.858;2023-05-29T13:23:51;2.17;;;1.92;;
53899;SDS011;40509;32.858;-116.858;2023-05-29T13:26:18;1.52;;;1.35;;
53899;SDS011;40509;32.858;-116.858;2023-05-29T13:28:45;1.42;;;1.33;;
53899;SDS011;40509;32.858;-116.858;2023-05-29T13:31:12;1.95;;;1.60;;
53899;SDS011;40509;32.858;-116.858;2023-05-29T13:33:40;2.42;;;1.48;;
53899;SDS011;40509;32.858;-116.858;2023-05-29T13:36:07;2.05;;;1.40;;
53899;SDS011;40509;32.858;-116.858;2023-05-29T13:38:34;1.70;;;1.42;;
53899;SDS011;40509;32.858;-116.858;2023-05-29T13:41:01;2.28;;;1.60;;
53899;SDS011;40509;32.858;-116.858;2023-05-29T13:43:28;1.65;;;1.55;;
53899;SDS011;40509;32.858;-116.858;2023-05-29T13:45:58;1.20;;;1.10;;
53899;SDS011;40509;32.858;-116.858;2023-05-29T13:48:25;2.35;;;1.63;;
53899;SDS011;40509;32.858;-116.858;2023-05-29T13:50:52;1.45;;;1.30;;
53899;SDS011;40509;32.858;-116.858;2023-05-29T13:53:19;2.45;;;1.77;;
53899;SDS011;40509;32.858;-116.858;2023-05-29T13:55:46;1.48;;;1.38;;
53899;SDS011;40509;32.858;-116.858;2023-05-29T13:58:13;2.45;;;1.58;;
53899;SDS011;40509;32.858;-116.858;2023-05-29T14:00:41;1.08;;;1.00;;
53899;SDS011;40509;32.858;-116.858;2023-05-29T14:03:08;1.50;;;1.40;;
53899;SDS011;40509;32.858;-116.858;2023-05-29T14:05:35;1.48;;;1.38;;
53899;SDS011;40509;32.858;-116.858;2023-05-29T14:08:02;2.00;;;1.60;;
53899;SDS011;40509;32.858;-116.858;2023-05-29T14:10:30;1.48;;;1.38;;
53899;SDS011;40509;32.858;-116.858;2023-05-29T14:12:57;1.67;;;1.58;;
53899;SDS011;40509;32.858;-116.858;2023-05-29T14:15:24;1.75;;;1.63;;
53899;SDS011;40509;32.858;-116.858;2023-05-29T14:17:51;2.13;;;1.35;;
53899;SDS011;40509;32.858;-116.858;2023-05-29T14:20:18;1.83;;;1.55;;
53899;SDS011;40509;32.858;-116.858;2023-05-29T14:22:45;1.92;;;1.60;;
53899;SDS011;40509;32.858;-116.858;2023-05-29T14:25:12;2.50;;;1.35;;
53899;SDS011;40509;32.858;-116.858;2023-05-29T14:27:40;2.30;;;1.30;;
53899;SDS011;40509;32.858;-116.858;2023-05-29T14:30:08;1.63;;;1.30;;
53899;SDS011;40509;32.858;-116.858;2023-05-29T14:32:35;1.80;;;1.67;;
53899;SDS011;40509;32.858;-116.858;2023-05-29T14:35:02;1.77;;;0.95;;
53899;SDS011;40509;32.858;-116.858;2023-05-29T14:37:31;1.60;;;1.50;;
53899;SDS011;40509;32.858;-116.858;2023-05-29T14:39:58;2.83;;;1.25;;